sensor_id;sensor_type;location;lat;lon;timestamp;P1;durP1;ratioP1;P2;durP2;ratioP2
37917;SDS011;23749;51.410;21.130;2022-12-07T00:01:59;14.33;;;9.63;;
37917;SDS011;23749;51.410;21.130;2022-12-07T00:05:10;15.77;;;11.10;;
37917;SDS011;23749;51.410;21.130;2022-12-07T00:08:20;10.70;;;8.50;;
37917;SDS011;23749;51.410;21.130;2022-12-07T00:11:30;14.23;;;11.23;;
37917;SDS011;23749;51.410;21.130;2022-12-07T00:14:41;17.60;;;12.67;;
37917;SDS011;23749;51.410;21.130;2022-12-07T00:17:51;15.83;;;10.83;;
37917;SDS011;23749;51.410;21.130;2022-12-07T00:21:06;13.93;;;10.33;;
37917;SDS011;23749;51.410;21.130;2022-12-07T00:24:16;16.77;;;11.23;;
37917;SDS011;23749;51.410;21.130;2022-12-07T00:27:27;13.13;;;9.33;;
37917;SDS011;23749;51.410;21.130;2022-12-07T00:30:37;17.13;;;10.13;;
37917;SDS011;23749;51.410;21.130;2022-12-07T00:33:47;16.37;;;10.77;;
37917;SDS011;23749;51.410;21.130;2022-12-07T00:36:58;16.03;;;10.53;;
37917;SDS011;23749;51.410;21.130;2022-12-07T00:40:09;10.63;;;8.20;;
37917;SDS011;23749;51.410;21.130;2022-12-07T00:43:20;10.57;;;8.20;;
37917;SDS011;23749;51.410;21.130;2022-12-07T00:46:30;9.70;;;7.20;;
37917;SDS011;23749;51.410;21.130;2022-12-07T00:49:41;9.93;;;7.17;;
37917;SDS011;23749;51.410;21.130;2022-12-07T00:52:51;11.67;;;7.00;;
37917;SDS011;23749;51.410;21.130;2022-12-07T00:56:05;8.90;;;6.63;;
37917;SDS011;23749;51.410;21.130;2022-12-07T00:59:16;9.43;;;7.07;;
37917;SDS011;23749;51.410;21.130;2022-12-07T01:02:26;8.30;;;6.13;;
37917;SDS011;23749;51.410;21.130;2022-12-07T01:05:36;10.10;;;6.87;;
37917;SDS011;23749;51.410;21.130;2022-12-07T01:08:47;9.50;;;6.10;;
37917;SDS011;23749;51.410;21.130;2022-12-07T01:11:57;9.90;;;6.40;;
37917;SDS011;23749;51.410;21.130;2022-12-07T01:15:07;9.53;;;6.13;;
37917;SDS011;23749;51.410;21.130;2022-12-07T01:18:18;9.30;;;6.77;;
37917;SDS011;23749;51.410;21.130;2022-12-07T01:21:29;7.07;;;5.90;;
37917;SDS011;23749;51.410;21.130;2022-12-07T01:24:40;11.27;;;6.57;;
37917;SDS011;23749;51.410;21.130;2022-12-07T01:27:50;8.53;;;5.63;;
37917;SDS011;23749;51.410;21.130;2022-12-07T01:31:01;10.77;;;6.80;;
37917;SDS011;23749;51.410;21.130;2022-12-07T01:34:12;9.17;;;5.90;;
37917;SDS011;23749;51.410;21.130;2022-12-07T01:37:22;7.63;;;5.93;;
37917;SDS011;23749;51.410;21.130;2022-12-07T01:40:33;8.23;;;5.90;;
37917;SDS011;23749;51.410;21.130;2022-12-07T01:47:12;8.77;;;5.97;;
37917;SDS011;23749;51.410;21.130;2022-12-07T01:50:24;7.10;;;5.87;;
37917;SDS011;23749;51.410;21.130;2022-12-07T01:53:36;7.50;;;6.07;;
37917;SDS011;23749;51.410;21.130;2022-12-07T01:56:49;15.00;;;7.67;;
37917;SDS011;23749;51.410;21.130;2022-12-07T02:00:01;8.93;;;6.20;;
37917;SDS011;23749;51.410;21.130;2022-12-07T02:03:14;10.03;;;6.27;;
37917;SDS011;23749;51.410;21.130;2022-12-07T02:06:26;12.93;;;7.10;;
37917;SDS011;23749;51.410;21.130;2022-12-07T02:09:37;12.13;;;7.37;;
37917;SDS011;23749;51.410;21.130;2022-12-07T02:12:48;9.57;;;6.13;;
37917;SDS011;23749;51.410;21.130;2022-12-07T02:29:25;8.50;;;6.57;;
37917;SDS011;23749;51.410;21.130;2022-12-07T02:32:42;7.53;;;5.63;;
37917;SDS011;23749;51.410;21.130;2022-12-07T02:35:56;7.27;;;5.57;;
37917;SDS011;23749;51.410;21.130;2022-12-07T02:39:10;10.37;;;6.40;;
37917;SDS011;23749;51.410;21.130;2022-12-07T02:42:27;9.80;;;6.70;;
37917;SDS011;23749;51.410;21.130;2022-12-07T02:45:39;7.00;;;5.80;;
37917;SDS011;23749;51.410;21.130;2022-12-07T02:48:50;8.50;;;6.37;;
37917;SDS011;23749;51.410;21.130;2022-12-07T02:52:01;11.27;;;7.10;;
37917;SDS011;23749;51.410;21.130;2022-12-07T02:55:11;8.87;;;6.60;;
37917;SDS011;23749;51.410;21.130;2022-12-07T02:58:26;8.30;;;6.40;;
37917;SDS011;23749;51.410;21.130;2022-12-07T03:01:54;7.93;;;6.33;;
37917;SDS011;23749;51.410;21.130;2022-12-07T03:11:37;8.00;;;6.30;;
37917;SDS011;23749;51.410;21.130;2022-12-07T03:14:52;9.67;;;6.13;;
37917;SDS011;23749;51.410;21.130;2022-12-07T03:18:05;8.47;;;6.67;;
37917;SDS011;23749;51.410;21.130;2022-12-07T03:21:18;8.57;;;6.40;;
37917;SDS011;23749;51.410;21.130;2022-12-07T03:24:34;8.30;;;5.80;;
37917;SDS011;23749;51.410;21.130;2022-12-07T03:30:57;8.93;;;5.93;;
37917;SDS011;23749;51.410;21.130;2022-12-07T03:34:26;7.47;;;5.83;;
37917;SDS011;23749;51.410;21.130;2022-12-07T03:37:40;7.00;;;5.87;;
37917;SDS011;23749;51.410;21.130;2022-12-07T03:40:56;8.07;;;6.13;;
37917;SDS011;23749;51.410;21.130;2022-12-07T03:44:07;6.53;;;5.63;;
37917;SDS011;23749;51.410;21.130;2022-12-07T03:47:35;8.10;;;6.13;;
37917;SDS011;23749;51.410;21.130;2022-12-07T03:50:49;7.13;;;6.00;;
37917;SDS011;23749;51.410;21.130;2022-12-07T03:54:02;7.47;;;5.50;;
37917;SDS011;23749;51.410;21.130;2022-12-07T03:57:16;6.80;;;5.50;;
37917;SDS011;23749;51.410;21.130;2022-12-07T04:00:26;6.67;;;5.97;;
37917;SDS011;23749;51.410;21.130;2022-12-07T04:03:37;7.43;;;5.90;;
37917;SDS011;23749;51.410;21.130;2022-12-07T04:06:47;7.57;;;6.13;;
37917;SDS011;23749;51.410;21.130;2022-12-07T04:09:57;6.20;;;5.57;;
37917;SDS011;23749;51.410;21.130;2022-12-07T04:13:08;7.17;;;5.40;;
37917;SDS011;23749;51.410;21.130;2022-12-07T04:16:18;8.63;;;5.90;;
37917;SDS011;23749;51.410;21.130;2022-12-07T04:19:30;8.03;;;6.10;;
37917;SDS011;23749;51.410;21.130;2022-12-07T04:22:40;7.73;;;6.57;;
37917;SDS011;23749;51.410;21.130;2022-12-07T04:25:51;7.70;;;5.60;;
37917;SDS011;23749;51.410;21.130;2022-12-07T04:29:01;6.60;;;5.73;;
37917;SDS011;23749;51.410;21.130;2022-12-07T04:32:11;9.70;;;6.30;;
37917;SDS011;23749;51.410;21.130;2022-12-07T04:35:21;7.43;;;5.60;;
37917;SDS011;23749;51.410;21.130;2022-12-07T04:38:32;7.07;;;5.90;;
37917;SDS011;23749;51.410;21.130;2022-12-07T04:41:42;8.43;;;6.20;;
37917;SDS011;23749;51.410;21.130;2022-12-07T04:44:53;7.97;;;6.00;;
37917;SDS011;23749;51.410;21.130;2022-12-07T04:48:03;6.03;;;5.43;;
37917;SDS011;23749;51.410;21.130;2022-12-07T04:51:15;7.30;;;6.20;;
37917;SDS011;23749;51.410;21.130;2022-12-07T04:54:26;9.03;;;6.00;;
37917;SDS011;23749;51.410;21.130;2022-12-07T04:57:36;6.90;;;5.93;;
37917;SDS011;23749;51.410;21.130;2022-12-07T05:00:46;7.97;;;5.67;;
37917;SDS011;23749;51.410;21.130;2022-12-07T05:03:57;8.33;;;6.20;;
37917;SDS011;23749;51.410;21.130;2022-12-07T05:07:07;7.77;;;6.30;;
37917;SDS011;23749;51.410;21.130;2022-12-07T05:10:18;8.00;;;6.17;;
37917;SDS011;23749;51.410;21.130;2022-12-07T05:13:28;9.23;;;6.53;;
37917;SDS011;23749;51.410;21.130;2022-12-07T05:16:38;9.07;;;6.73;;
37917;SDS011;23749;51.410;21.130;2022-12-07T05:19:49;7.03;;;5.83;;
37917;SDS011;23749;51.410;21.130;2022-12-07T05:22:59;7.97;;;6.00;;
37917;SDS011;23749;51.410;21.130;2022-12-07T05:26:10;9.00;;;6.70;;
37917;SDS011;23749;51.410;21.130;2022-12-07T05:29:20;13.10;;;8.80;;
37917;SDS011;23749;51.410;21.130;2022-12-07T05:32:30;17.93;;;10.07;;
37917;SDS011;23749;51.410;21.130;2022-12-07T05:35:40;22.10;;;13.07;;
37917;SDS011;23749;51.410;21.130;2022-12-07T05:38:51;23.90;;;13.83;;
37917;SDS011;23749;51.410;21.130;2022-12-07T05:42:01;20.40;;;11.73;;
37917;SDS011;23749;51.410;21.130;2022-12-07T05:45:24;16.03;;;11.07;;
37917;SDS011;23749;51.410;21.130;2022-12-07T05:48:34;15.83;;;11.20;;
37917;SDS011;23749;51.410;21.130;2022-12-07T05:51:44;15.37;;;10.43;;
37917;SDS011;23749;51.410;21.130;2022-12-07T05:54:54;13.07;;;9.90;;
37917;SDS011;23749;51.410;21.130;2022-12-07T05:58:05;14.60;;;10.60;;
37917;SDS011;23749;51.410;21.130;2022-12-07T06:01:34;12.97;;;9.73;;
37917;SDS011;23749;51.410;21.130;2022-12-07T06:04:45;28.60;;;15.73;;
37917;SDS011;23749;51.410;21.130;2022-12-07T06:07:56;21.97;;;13.37;;
37917;SDS011;23749;51.410;21.130;2022-12-07T06:11:06;19.17;;;13.47;;
37917;SDS011;23749;51.410;21.130;2022-12-07T06:14:35;15.90;;;10.17;;
37917;SDS011;23749;51.410;21.130;2022-12-07T06:17:45;19.97;;;13.10;;
37917;SDS011;23749;51.410;21.130;2022-12-07T06:20:55;18.43;;;9.70;;
37917;SDS011;23749;51.410;21.130;2022-12-07T06:24:06;13.97;;;8.97;;
37917;SDS011;23749;51.410;21.130;2022-12-07T06:27:16;14.40;;;9.33;;
37917;SDS011;23749;51.410;21.130;2022-12-07T06:30:27;17.33;;;11.37;;
37917;SDS011;23749;51.410;21.130;2022-12-07T06:33:37;12.07;;;8.40;;
37917;SDS011;23749;51.410;21.130;2022-12-07T06:36:48;7.87;;;6.73;;
37917;SDS011;23749;51.410;21.130;2022-12-07T06:40:01;9.10;;;6.87;;
37917;SDS011;23749;51.410;21.130;2022-12-07T06:43:12;14.40;;;8.53;;
37917;SDS011;23749;51.410;21.130;2022-12-07T06:46:22;12.07;;;7.47;;
37917;SDS011;23749;51.410;21.130;2022-12-07T06:49:32;9.97;;;7.13;;
37917;SDS011;23749;51.410;21.130;2022-12-07T06:52:43;12.83;;;7.20;;
37917;SDS011;23749;51.410;21.130;2022-12-07T06:55:53;10.23;;;7.43;;
37917;SDS011;23749;51.410;21.130;2022-12-07T06:59:03;14.60;;;8.90;;
37917;SDS011;23749;51.410;21.130;2022-12-07T07:02:16;14.20;;;8.90;;
37917;SDS011;23749;51.410;21.130;2022-12-07T07:05:26;16.67;;;8.23;;
37917;SDS011;23749;51.410;21.130;2022-12-07T07:08:37;13.07;;;7.90;;
37917;SDS011;23749;51.410;21.130;2022-12-07T07:11:47;12.97;;;7.77;;
37917;SDS011;23749;51.410;21.130;2022-12-07T07:14:58;19.83;;;11.43;;
37917;SDS011;23749;51.410;21.130;2022-12-07T07:18:08;16.43;;;10.40;;
37917;SDS011;23749;51.410;21.130;2022-12-07T07:21:18;13.57;;;9.73;;
37917;SDS011;23749;51.410;21.130;2022-12-07T07:24:29;14.27;;;9.20;;
37917;SDS011;23749;51.410;21.130;2022-12-07T07:27:39;13.87;;;9.33;;
37917;SDS011;23749;51.410;21.130;2022-12-07T07:30:49;22.77;;;11.93;;
37917;SDS011;23749;51.410;21.130;2022-12-07T07:34:00;18.37;;;11.20;;
37917;SDS011;23749;51.410;21.130;2022-12-07T07:37:10;12.87;;;8.53;;
37917;SDS011;23749;51.410;21.130;2022-12-07T07:40:22;13.90;;;9.23;;
37917;SDS011;23749;51.410;21.130;2022-12-07T07:43:33;18.30;;;10.73;;
37917;SDS011;23749;51.410;21.130;2022-12-07T07:46:43;18.27;;;11.57;;
37917;SDS011;23749;51.410;21.130;2022-12-07T07:49:53;18.90;;;10.93;;
37917;SDS011;23749;51.410;21.130;2022-12-07T07:53:03;17.17;;;10.20;;
37917;SDS011;23749;51.410;21.130;2022-12-07T07:56:14;9.93;;;8.40;;
37917;SDS011;23749;51.410;21.130;2022-12-07T07:59:24;12.07;;;7.50;;
37917;SDS011;23749;51.410;21.130;2022-12-07T08:02:35;8.43;;;6.50;;
37917;SDS011;23749;51.410;21.130;2022-12-07T08:05:45;11.10;;;7.07;;
37917;SDS011;23749;51.410;21.130;2022-12-07T08:08:55;9.70;;;5.83;;
37917;SDS011;23749;51.410;21.130;2022-12-07T08:12:07;9.43;;;6.73;;
37917;SDS011;23749;51.410;21.130;2022-12-07T08:15:18;7.40;;;5.80;;
37917;SDS011;23749;51.410;21.130;2022-12-07T08:18:28;10.13;;;7.30;;
37917;SDS011;23749;51.410;21.130;2022-12-07T08:21:38;9.57;;;7.60;;
37917;SDS011;23749;51.410;21.130;2022-12-07T08:24:49;12.43;;;8.40;;
37917;SDS011;23749;51.410;21.130;2022-12-07T08:27:59;10.77;;;7.80;;
37917;SDS011;23749;51.410;21.130;2022-12-07T08:31:14;10.33;;;7.63;;
37917;SDS011;23749;51.410;21.130;2022-12-07T08:34:25;8.73;;;7.23;;
37917;SDS011;23749;51.410;21.130;2022-12-07T08:37:35;12.33;;;8.13;;
37917;SDS011;23749;51.410;21.130;2022-12-07T08:40:55;7.67;;;6.60;;
37917;SDS011;23749;51.410;21.130;2022-12-07T08:44:06;11.10;;;7.20;;
37917;SDS011;23749;51.410;21.130;2022-12-07T08:47:16;9.57;;;7.20;;
37917;SDS011;23749;51.410;21.130;2022-12-07T08:50:26;8.87;;;7.43;;
37917;SDS011;23749;51.410;21.130;2022-12-07T08:53:37;11.43;;;8.10;;
37917;SDS011;23749;51.410;21.130;2022-12-07T08:56:48;8.93;;;7.30;;
37917;SDS011;23749;51.410;21.130;2022-12-07T09:00:01;9.80;;;7.37;;
37917;SDS011;23749;51.410;21.130;2022-12-07T09:03:11;14.70;;;10.43;;
37917;SDS011;23749;51.410;21.130;2022-12-07T09:06:21;14.83;;;9.87;;
37917;SDS011;23749;51.410;21.130;2022-12-07T09:09:32;12.53;;;8.97;;
37917;SDS011;23749;51.410;21.130;2022-12-07T09:12:42;12.93;;;10.03;;
37917;SDS011;23749;51.410;21.130;2022-12-07T09:15:52;12.77;;;10.30;;
37917;SDS011;23749;51.410;21.130;2022-12-07T09:19:03;15.97;;;11.47;;
37917;SDS011;23749;51.410;21.130;2022-12-07T09:22:13;18.77;;;11.57;;
37917;SDS011;23749;51.410;21.130;2022-12-07T09:25:23;11.97;;;8.80;;
37917;SDS011;23749;51.410;21.130;2022-12-07T09:28:34;10.97;;;7.80;;
37917;SDS011;23749;51.410;21.130;2022-12-07T09:31:44;9.50;;;7.23;;
37917;SDS011;23749;51.410;21.130;2022-12-07T09:34:54;12.50;;;9.67;;
37917;SDS011;23749;51.410;21.130;2022-12-07T09:38:05;12.23;;;9.30;;
37917;SDS011;23749;51.410;21.130;2022-12-07T09:41:15;11.37;;;8.03;;
37917;SDS011;23749;51.410;21.130;2022-12-07T09:44:26;10.07;;;7.53;;
37917;SDS011;23749;51.410;21.130;2022-12-07T09:47:37;14.87;;;10.13;;
37917;SDS011;23749;51.410;21.130;2022-12-07T09:50:47;9.37;;;7.97;;
37917;SDS011;23749;51.410;21.130;2022-12-07T09:53:58;12.87;;;8.07;;
37917;SDS011;23749;51.410;21.130;2022-12-07T09:57:11;10.90;;;8.20;;
37917;SDS011;23749;51.410;21.130;2022-12-07T10:00:22;11.80;;;8.43;;
37917;SDS011;23749;51.410;21.130;2022-12-07T10:03:34;18.53;;;12.10;;
37917;SDS011;23749;51.410;21.130;2022-12-07T10:06:45;14.10;;;10.10;;
37917;SDS011;23749;51.410;21.130;2022-12-07T10:09:57;9.60;;;8.17;;
37917;SDS011;23749;51.410;21.130;2022-12-07T10:13:09;11.80;;;8.47;;
37917;SDS011;23749;51.410;21.130;2022-12-07T10:19:37;14.23;;;9.77;;
37917;SDS011;23749;51.410;21.130;2022-12-07T10:22:58;16.27;;;11.17;;
37917;SDS011;23749;51.410;21.130;2022-12-07T10:26:19;15.23;;;10.60;;
37917;SDS011;23749;51.410;21.130;2022-12-07T10:29:38;14.07;;;10.23;;
37917;SDS011;23749;51.410;21.130;2022-12-07T10:32:49;12.53;;;8.70;;
37917;SDS011;23749;51.410;21.130;2022-12-07T10:36:00;14.80;;;9.87;;
37917;SDS011;23749;51.410;21.130;2022-12-07T10:39:12;12.87;;;8.80;;
37917;SDS011;23749;51.410;21.130;2022-12-07T10:42:27;9.93;;;8.00;;
37917;SDS011;23749;51.410;21.130;2022-12-07T11:05:43;11.90;;;9.43;;
37917;SDS011;23749;51.410;21.130;2022-12-07T11:09:00;10.57;;;8.33;;
37917;SDS011;23749;51.410;21.130;2022-12-07T11:15:53;7.40;;;6.27;;
37917;SDS011;23749;51.410;21.130;2022-12-07T11:22:40;9.57;;;7.37;;
37917;SDS011;23749;51.410;21.130;2022-12-07T11:25:54;7.40;;;6.50;;
37917;SDS011;23749;51.410;21.130;2022-12-07T11:39:28;10.97;;;8.17;;
37917;SDS011;23749;51.410;21.130;2022-12-07T11:42:51;8.33;;;7.00;;
37917;SDS011;23749;51.410;21.130;2022-12-07T11:46:06;6.80;;;5.40;;
37917;SDS011;23749;51.410;21.130;2022-12-07T11:49:23;6.53;;;5.60;;
37917;SDS011;23749;51.410;21.130;2022-12-07T11:52:42;6.47;;;5.80;;
37917;SDS011;23749;51.410;21.130;2022-12-07T11:59:08;6.90;;;5.90;;
37917;SDS011;23749;51.410;21.130;2022-12-07T12:02:26;7.20;;;5.37;;
37917;SDS011;23749;51.410;21.130;2022-12-07T12:05:38;6.93;;;5.00;;
37917;SDS011;23749;51.410;21.130;2022-12-07T12:18:28;5.50;;;5.00;;
37917;SDS011;23749;51.410;21.130;2022-12-07T12:21:43;6.20;;;5.00;;
37917;SDS011;23749;51.410;21.130;2022-12-07T12:24:55;7.97;;;6.07;;
37917;SDS011;23749;51.410;21.130;2022-12-07T12:28:15;14.20;;;10.30;;
37917;SDS011;23749;51.410;21.130;2022-12-07T12:31:39;8.20;;;6.73;;
37917;SDS011;23749;51.410;21.130;2022-12-07T12:45:11;11.30;;;7.80;;
37917;SDS011;23749;51.410;21.130;2022-12-07T12:48:28;11.83;;;8.10;;
37917;SDS011;23749;51.410;21.130;2022-12-07T12:51:39;9.13;;;8.03;;
37917;SDS011;23749;51.410;21.130;2022-12-07T13:17:56;13.70;;;8.50;;
37917;SDS011;23749;51.410;21.130;2022-12-07T13:24:17;10.90;;;8.37;;
37917;SDS011;23749;51.410;21.130;2022-12-07T13:27:28;10.93;;;8.40;;
37917;SDS011;23749;51.410;21.130;2022-12-07T13:30:43;14.07;;;10.23;;
37917;SDS011;23749;51.410;21.130;2022-12-07T13:33:55;12.67;;;10.17;;
37917;SDS011;23749;51.410;21.130;2022-12-07T13:37:15;18.07;;;14.37;;
37917;SDS011;23749;51.410;21.130;2022-12-07T13:40:30;19.03;;;14.13;;
37917;SDS011;23749;51.410;21.130;2022-12-07T13:43:54;14.70;;;9.93;;
37917;SDS011;23749;51.410;21.130;2022-12-07T13:50:33;28.67;;;20.03;;
37917;SDS011;23749;51.410;21.130;2022-12-07T13:53:48;23.70;;;12.47;;
37917;SDS011;23749;51.410;21.130;2022-12-07T13:56:58;14.73;;;10.70;;
37917;SDS011;23749;51.410;21.130;2022-12-07T14:00:16;22.77;;;15.73;;
37917;SDS011;23749;51.410;21.130;2022-12-07T14:03:29;16.70;;;11.47;;
37917;SDS011;23749;51.410;21.130;2022-12-07T14:06:46;17.23;;;12.17;;
37917;SDS011;23749;51.410;21.130;2022-12-07T14:09:59;17.03;;;12.43;;
37917;SDS011;23749;51.410;21.130;2022-12-07T14:16:38;15.73;;;10.70;;
37917;SDS011;23749;51.410;21.130;2022-12-07T14:22:59;16.00;;;11.50;;
37917;SDS011;23749;51.410;21.130;2022-12-07T14:26:19;14.67;;;10.30;;
37917;SDS011;23749;51.410;21.130;2022-12-07T14:29:31;15.03;;;10.53;;
37917;SDS011;23749;51.410;21.130;2022-12-07T14:32:42;15.50;;;10.67;;
37917;SDS011;23749;51.410;21.130;2022-12-07T14:35:58;18.60;;;13.40;;
37917;SDS011;23749;51.410;21.130;2022-12-07T14:39:08;15.50;;;10.40;;
37917;SDS011;23749;51.410;21.130;2022-12-07T14:42:19;17.90;;;11.43;;
37917;SDS011;23749;51.410;21.130;2022-12-07T14:45:30;16.53;;;11.63;;
37917;SDS011;23749;51.410;21.130;2022-12-07T14:48:40;20.53;;;13.83;;
37917;SDS011;23749;51.410;21.130;2022-12-07T14:51:51;17.07;;;11.03;;
37917;SDS011;23749;51.410;21.130;2022-12-07T14:55:01;17.23;;;11.60;;
37917;SDS011;23749;51.410;21.130;2022-12-07T14:58:12;19.23;;;12.00;;
37917;SDS011;23749;51.410;21.130;2022-12-07T15:01:23;17.30;;;11.67;;
37917;SDS011;23749;51.410;21.130;2022-12-07T15:04:33;17.13;;;11.80;;
37917;SDS011;23749;51.410;21.130;2022-12-07T15:07:44;15.90;;;11.23;;
37917;SDS011;23749;51.410;21.130;2022-12-07T15:10:55;16.83;;;11.93;;
37917;SDS011;23749;51.410;21.130;2022-12-07T15:14:05;23.47;;;15.50;;
37917;SDS011;23749;51.410;21.130;2022-12-07T15:17:18;20.77;;;13.80;;
37917;SDS011;23749;51.410;21.130;2022-12-07T15:20:29;20.03;;;13.70;;
37917;SDS011;23749;51.410;21.130;2022-12-07T15:23:39;20.77;;;13.33;;
37917;SDS011;23749;51.410;21.130;2022-12-07T15:26:49;19.93;;;12.87;;
37917;SDS011;23749;51.410;21.130;2022-12-07T15:30:00;19.60;;;13.10;;
37917;SDS011;23749;51.410;21.130;2022-12-07T15:33:10;22.20;;;14.53;;
37917;SDS011;23749;51.410;21.130;2022-12-07T15:36:22;18.73;;;12.77;;
37917;SDS011;23749;51.410;21.130;2022-12-07T15:39:33;24.13;;;15.10;;
37917;SDS011;23749;51.410;21.130;2022-12-07T15:42:43;19.93;;;13.30;;
37917;SDS011;23749;51.410;21.130;2022-12-07T15:45:54;20.03;;;12.87;;
37917;SDS011;23749;51.410;21.130;2022-12-07T15:49:14;23.80;;;13.67;;
37917;SDS011;23749;51.410;21.130;2022-12-07T15:52:25;16.13;;;11.10;;
37917;SDS011;23749;51.410;21.130;2022-12-07T15:55:37;18.07;;;12.63;;
37917;SDS011;23749;51.410;21.130;2022-12-07T15:58:48;19.17;;;11.30;;
37917;SDS011;23749;51.410;21.130;2022-12-07T16:01:58;15.00;;;10.53;;
37917;SDS011;23749;51.410;21.130;2022-12-07T16:05:08;15.73;;;10.70;;
37917;SDS011;23749;51.410;21.130;2022-12-07T16:08:19;16.90;;;11.43;;
37917;SDS011;23749;51.410;21.130;2022-12-07T16:11:29;17.90;;;12.17;;
37917;SDS011;23749;51.410;21.130;2022-12-07T16:14:40;24.73;;;15.23;;
37917;SDS011;23749;51.410;21.130;2022-12-07T16:17:51;16.93;;;11.73;;
37917;SDS011;23749;51.410;21.130;2022-12-07T16:21:01;18.53;;;11.53;;
37917;SDS011;23749;51.410;21.130;2022-12-07T16:24:12;22.00;;;14.00;;
37917;SDS011;23749;51.410;21.130;2022-12-07T16:27:25;21.60;;;13.93;;
37917;SDS011;23749;51.410;21.130;2022-12-07T16:30:35;19.80;;;13.60;;
37917;SDS011;23749;51.410;21.130;2022-12-07T16:33:45;19.30;;;13.23;;
37917;SDS011;23749;51.410;21.130;2022-12-07T16:36:56;19.47;;;12.33;;
37917;SDS011;23749;51.410;21.130;2022-12-07T16:40:06;19.53;;;12.93;;
37917;SDS011;23749;51.410;21.130;2022-12-07T16:43:16;18.43;;;11.40;;
37917;SDS011;23749;51.410;21.130;2022-12-07T16:46:27;19.67;;;12.43;;
37917;SDS011;23749;51.410;21.130;2022-12-07T16:49:37;18.93;;;11.63;;
37917;SDS011;23749;51.410;21.130;2022-12-07T16:52:47;16.00;;;11.13;;
37917;SDS011;23749;51.410;21.130;2022-12-07T16:55:58;18.77;;;12.27;;
37917;SDS011;23749;51.410;21.130;2022-12-07T16:59:08;17.53;;;11.17;;
37917;SDS011;23749;51.410;21.130;2022-12-07T17:02:18;13.63;;;9.70;;
37917;SDS011;23749;51.410;21.130;2022-12-07T17:05:29;18.83;;;12.57;;
37917;SDS011;23749;51.410;21.130;2022-12-07T17:08:39;18.10;;;11.67;;
37917;SDS011;23749;51.410;21.130;2022-12-07T17:11:50;18.27;;;11.77;;
37917;SDS011;23749;51.410;21.130;2022-12-07T17:15:00;17.90;;;11.47;;
37917;SDS011;23749;51.410;21.130;2022-12-07T17:18:30;18.27;;;11.53;;
37917;SDS011;23749;51.410;21.130;2022-12-07T17:21:41;19.40;;;11.97;;
37917;SDS011;23749;51.410;21.130;2022-12-07T17:24:51;21.53;;;13.50;;
37917;SDS011;23749;51.410;21.130;2022-12-07T17:28:02;13.47;;;10.10;;
37917;SDS011;23749;51.410;21.130;2022-12-07T17:31:13;18.03;;;11.17;;
37917;SDS011;23749;51.410;21.130;2022-12-07T17:34:24;17.77;;;11.67;;
37917;SDS011;23749;51.410;21.130;2022-12-07T17:37:35;21.40;;;12.73;;
37917;SDS011;23749;51.410;21.130;2022-12-07T17:40:45;17.80;;;11.43;;
37917;SDS011;23749;51.410;21.130;2022-12-07T17:43:55;18.60;;;12.40;;
37917;SDS011;23749;51.410;21.130;2022-12-07T17:47:06;22.57;;;13.03;;
37917;SDS011;23749;51.410;21.130;2022-12-07T17:50:17;20.63;;;12.57;;
37917;SDS011;23749;51.410;21.130;2022-12-07T17:53:47;16.43;;;10.10;;
37917;SDS011;23749;51.410;21.130;2022-12-07T17:56:58;16.37;;;10.47;;
37917;SDS011;23749;51.410;21.130;2022-12-07T18:00:08;16.63;;;10.33;;
37917;SDS011;23749;51.410;21.130;2022-12-07T18:03:20;14.27;;;9.57;;
37917;SDS011;23749;51.410;21.130;2022-12-07T18:06:30;12.03;;;8.63;;
37917;SDS011;23749;51.410;21.130;2022-12-07T18:09:41;14.60;;;8.97;;
37917;SDS011;23749;51.410;21.130;2022-12-07T18:12:51;11.90;;;8.40;;
37917;SDS011;23749;51.410;21.130;2022-12-07T18:16:23;13.53;;;9.30;;
37917;SDS011;23749;51.410;21.130;2022-12-07T18:19:33;14.07;;;8.33;;
37917;SDS011;23749;51.410;21.130;2022-12-07T18:22:46;15.33;;;9.77;;
37917;SDS011;23749;51.410;21.130;2022-12-07T18:25:56;14.70;;;9.53;;
37917;SDS011;23749;51.410;21.130;2022-12-07T18:29:07;13.87;;;9.47;;
37917;SDS011;23749;51.410;21.130;2022-12-07T18:32:17;12.97;;;7.73;;
37917;SDS011;23749;51.410;21.130;2022-12-07T18:35:28;13.83;;;8.83;;
37917;SDS011;23749;51.410;21.130;2022-12-07T18:38:38;13.70;;;9.47;;
37917;SDS011;23749;51.410;21.130;2022-12-07T18:41:48;13.00;;;9.40;;
37917;SDS011;23749;51.410;21.130;2022-12-07T18:44:59;12.37;;;8.53;;
37917;SDS011;23749;51.410;21.130;2022-12-07T18:48:09;12.47;;;8.33;;
37917;SDS011;23749;51.410;21.130;2022-12-07T18:51:19;11.30;;;7.83;;
37917;SDS011;23749;51.410;21.130;2022-12-07T18:54:30;10.93;;;7.97;;
37917;SDS011;23749;51.410;21.130;2022-12-07T18:57:40;11.30;;;8.57;;
37917;SDS011;23749;51.410;21.130;2022-12-07T19:00:50;14.27;;;9.13;;
37917;SDS011;23749;51.410;21.130;2022-12-07T19:04:02;22.40;;;11.60;;
37917;SDS011;23749;51.410;21.130;2022-12-07T19:07:12;16.23;;;10.63;;
37917;SDS011;23749;51.410;21.130;2022-12-07T19:10:22;14.93;;;10.10;;
37917;SDS011;23749;51.410;21.130;2022-12-07T19:13:33;13.43;;;9.77;;
37917;SDS011;23749;51.410;21.130;2022-12-07T19:16:43;13.97;;;9.63;;
37917;SDS011;23749;51.410;21.130;2022-12-07T19:19:54;14.87;;;8.87;;
37917;SDS011;23749;51.410;21.130;2022-12-07T19:23:04;13.53;;;9.33;;
37917;SDS011;23749;51.410;21.130;2022-12-07T19:26:15;15.57;;;9.93;;
37917;SDS011;23749;51.410;21.130;2022-12-07T19:29:26;14.77;;;9.43;;
37917;SDS011;23749;51.410;21.130;2022-12-07T19:32:37;14.67;;;9.57;;
37917;SDS011;23749;51.410;21.130;2022-12-07T19:35:48;13.33;;;8.60;;
37917;SDS011;23749;51.410;21.130;2022-12-07T19:38:58;13.77;;;9.83;;
37917;SDS011;23749;51.410;21.130;2022-12-07T19:42:09;16.67;;;10.40;;
37917;SDS011;23749;51.410;21.130;2022-12-07T19:45:19;14.73;;;9.57;;
37917;SDS011;23749;51.410;21.130;2022-12-07T19:48:29;15.60;;;10.30;;
37917;SDS011;23749;51.410;21.130;2022-12-07T19:51:40;15.50;;;10.13;;
37917;SDS011;23749;51.410;21.130;2022-12-07T19:54:51;14.03;;;9.43;;
37917;SDS011;23749;51.410;21.130;2022-12-07T19:58:01;14.87;;;9.87;;
37917;SDS011;23749;51.410;21.130;2022-12-07T20:01:12;13.50;;;8.67;;
37917;SDS011;23749;51.410;21.130;2022-12-07T20:04:24;14.10;;;9.03;;
37917;SDS011;23749;51.410;21.130;2022-12-07T20:07:34;14.03;;;9.40;;
37917;SDS011;23749;51.410;21.130;2022-12-07T20:10:48;15.67;;;10.17;;
37917;SDS011;23749;51.410;21.130;2022-12-07T20:13:59;13.97;;;9.47;;
37917;SDS011;23749;51.410;21.130;2022-12-07T20:17:10;13.47;;;9.80;;
37917;SDS011;23749;51.410;21.130;2022-12-07T20:20:20;16.20;;;9.97;;
37917;SDS011;23749;51.410;21.130;2022-12-07T20:23:31;14.50;;;9.67;;
37917;SDS011;23749;51.410;21.130;2022-12-07T20:26:41;15.87;;;10.03;;
37917;SDS011;23749;51.410;21.130;2022-12-07T20:29:51;15.73;;;9.73;;
37917;SDS011;23749;51.410;21.130;2022-12-07T20:33:02;10.63;;;8.20;;
37917;SDS011;23749;51.410;21.130;2022-12-07T20:36:13;17.13;;;10.77;;
37917;SDS011;23749;51.410;21.130;2022-12-07T20:39:23;17.57;;;10.43;;
37917;SDS011;23749;51.410;21.130;2022-12-07T20:42:34;16.67;;;10.80;;
37917;SDS011;23749;51.410;21.130;2022-12-07T20:45:47;18.83;;;10.47;;
37917;SDS011;23749;51.410;21.130;2022-12-07T20:48:58;16.73;;;10.60;;